| time (UTC) | temp F | wind direction | speed MPH | gust MPH | rain 1hr in | rain 24hr in | rain mn in | humidity % | barometer mb |
| 20260509213007 | 84 | 262 | 9.0 | 20.0 | 0.00 | 0.01 | 0.00 | 28 | 1007.1 |
| 20260509211503 | 85 | 249 | 9.0 | 22.0 | 0.00 | 0.01 | 0.00 | 27 | 1007.1 |
| 20260509210001 | 85 | 251 | 14.0 | 25.0 | 0.00 | 0.01 | 0.00 | 25 | 1007.3 |
| 20260509204603 | 85 | 253 | 11.0 | 18.0 | 0.00 | 0.06 | 0.00 | 28 | 1007.1 |
| 20260509203057 | 84 | 244 | 10.0 | 18.0 | 0.00 | 0.06 | 0.00 | 29 | 1007.3 |
| 20260509201554 | 83 | 229 | 7.0 | 18.0 | 0.00 | 0.06 | 0.00 | 31 | 1007.4 |
| 20260509200106 | 83 | 247 | 9.0 | 15.0 | 0.00 | 0.06 | 0.00 | 33 | 1007.7 |
| 20260509194554 | 83 | 234 | 8.0 | 13.0 | 0.00 | 0.07 | 0.00 | 33 | 1007.9 |
| 20260509193050 | 82 | 274 | 8.0 | 16.0 | 0.00 | 0.07 | 0.00 | 32 | 1008.1 |
| 20260509191547 | 82 | 251 | 9.0 | 17.0 | 0.00 | 0.07 | 0.00 | 35 | 1008.1 |
| 20260509190043 | 81 | 195 | 4.0 | 19.0 | 0.00 | 0.07 | 0.00 | 37 | 1008.4 |
| 20260509184542 | 81 | 195 | 8.0 | 15.0 | 0.00 | 0.07 | 0.00 | 38 | 1008.6 |
| 20260509183058 | 80 | 222 | 5.0 | 15.0 | 0.00 | 0.07 | 0.00 | 38 | 1008.7 |
| 20260509181538 | 79 | 171 | 6.0 | 17.0 | 0.00 | 0.07 | 0.00 | 40 | 1009.0 |
| 20260509180034 | 78 | 255 | 3.0 | 10.0 | 0.00 | 0.07 | 0.00 | 41 | 1009.0 |
| 20260509174545 | 78 | 236 | 4.0 | 11.0 | 0.00 | 0.07 | 0.00 | 41 | 1009.3 |
| 20260509173030 | 76 | 191 | 5.0 | 11.0 | 0.00 | 0.07 | 0.00 | 45 | 1009.5 |
| 20260509171538 | 76 | 203 | 3.0 | 8.0 | 0.00 | 0.07 | 0.00 | 47 | 1009.7 |
| 20260509170025 | 75 | 216 | 4.0 | 9.0 | 0.00 | 0.07 | 0.00 | 48 | 1009.8 |
| 20260509164522 | 74 | 254 | 2.0 | 5.0 | 0.00 | 0.07 | 0.00 | 46 | 1009.7 |
| 20260509163029 | 73 | 181 | 7.0 | 11.0 | 0.00 | 0.07 | 0.00 | 48 | 1009.7 |
| 20260509161525 | 72 | 209 | 2.0 | 6.0 | 0.00 | 0.07 | 0.00 | 50 | 1009.7 |
| 20260509160014 | 71 | 214 | 2.0 | 7.0 | 0.00 | 0.07 | 0.00 | 55 | 1009.7 |
| 20260509154511 | 70 | 252 | 5.0 | 8.0 | 0.00 | 0.07 | 0.00 | 56 | 1009.8 |
| 20260509153012 | 68 | 264 | 4.0 | 8.0 | 0.00 | 0.07 | 0.00 | 56 | 1009.8 |
| 20260509151510 | 67 | 188 | 3.0 | 9.0 | 0.00 | 0.07 | 0.00 | 58 | 1009.9 |
| 20260509150018 | 67 | 177 | 5.0 | 9.0 | 0.00 | 0.07 | 0.00 | 58 | 1009.8 |
| 20260509144502 | 66 | 187 | 4.0 | 8.0 | 0.00 | 0.07 | 0.00 | 60 | 1009.7 |
| 20260509143103 | 65 | 197 | 2.0 | 5.0 | 0.00 | 0.07 | 0.00 | 62 | 1009.7 |
| 20260509141601 | 64 | 299 | 0.0 | 4.0 | 0.00 | 0.07 | 0.00 | 64 | 1009.7 |
| 20260509140101 | 62 | 214 | 1.0 | 7.0 | 0.00 | 0.07 | 0.00 | 67 | 1009.8 |
| 20260509134550 | 62 | 236 | 4.0 | 10.0 | 0.00 | 0.07 | 0.00 | 67 | 1009.8 |
| 20260509133046 | 60 | 215 | 5.0 | 9.0 | 0.00 | 0.07 | 0.00 | 69 | 1009.6 |
| 20260509131543 | 59 | 214 | 3.0 | 9.0 | 0.00 | 0.07 | 0.00 | 73 | 1009.6 |
| 20260509130039 | 58 | 253 | 3.0 | 11.0 | 0.00 | 0.07 | 0.00 | 75 | 1009.5 |
| 20260509124535 | 56 | 248 | 4.0 | 12.0 | 0.00 | 0.07 | 0.00 | 82 | 1009.6 |
| 20260509123037 | 55 | 156 | 0.0 | 2.0 | 0.00 | 0.07 | 0.00 | 89 | 1009.4 |
| 20260509121533 | 54 | 158 | 0.0 | 2.0 | 0.00 | 0.07 | 0.00 | 90 | 1009.2 |
| 20260509120036 | 53 | 166 | 0.0 | 1.0 | 0.00 | 0.07 | 0.00 | 90 | 1009.1 |
| 20260509114530 | 53 | 174 | 1.0 | 3.0 | 0.00 | 0.07 | 0.00 | 89 | 1008.9 |
| 20260509113030 | 53 | 227 | 2.0 | 5.0 | 0.00 | 0.07 | 0.00 | 91 | 1008.7 |
| 20260509111529 | 52 | 247 | 0.0 | 3.0 | 0.00 | 0.07 | 0.00 | 91 | 1008.6 |
| 20260509110027 | 53 | 177 | 0.0 | 1.0 | 0.00 | 0.07 | 0.00 | 90 | 1008.4 |
| 20260509104527 | 53 | 191 | 0.0 | 3.0 | 0.00 | 0.07 | 0.00 | 91 | 1008.4 |
| 20260509103027 | 53 | 311 | 0.0 | 0.0 | 0.00 | 0.07 | 0.00 | 91 | 1008.6 |
| 20260509101527 | 53 | 33 | 0.0 | 2.0 | 0.00 | 0.07 | 0.00 | 90 | 1008.6 |
| 20260509100024 | 53 | 33 | 0.0 | 3.0 | 0.00 | 0.07 | 0.00 | 90 | 1008.6 |
| 20260509094523 | 54 | 52 | 1.0 | 4.0 | 0.00 | 0.07 | 0.00 | 89 | 1008.6 |
| 20260509093022 | 55 | 89 | 0.0 | 3.0 | 0.00 | 0.07 | 0.00 | 89 | 1008.5 |
| 20260509091521 | 54 | 122 | 0.0 | 4.0 | 0.00 | 0.07 | 0.00 | 89 | 1008.5 |
| 20260509090020 | 55 | 41 | 0.0 | 2.0 | 0.00 | 0.07 | 0.00 | 88 | 1008.3 |
| 20260509084524 | 56 | 245 | 0.0 | 4.0 | 0.00 | 0.07 | 0.00 | 87 | 1008.3 |
| 20260509083018 | 56 | 167 | 2.0 | 8.0 | 0.00 | 0.07 | 0.00 | 88 | 1008.3 |
| 20260509081517 | 56 | 200 | 0.0 | 6.0 | 0.00 | 0.07 | 0.00 | 88 | 1008.3 |
| 20260509080016 | 56 | 141 | 1.0 | 7.0 | 0.00 | 0.07 | 0.00 | 89 | 1008.3 |
| 20260509074514 | 56 | 178 | 1.0 | 6.0 | 0.00 | 0.07 | 0.00 | 90 | 1008.4 |
| 20260509073013 | 55 | 122 | 0.0 | 4.0 | 0.00 | 0.07 | 0.00 | 90 | 1008.5 |
| 20260509071513 | 55 | 152 | 2.0 | 5.0 | 0.00 | 0.07 | 0.00 | 90 | 1008.4 |
| 20260509070014 | 56 | 137 | 1.0 | 4.0 | 0.00 | 0.07 | 0.00 | 90 | 1008.6 |
| 20260509064511 | 56 | 139 | 2.0 | 7.0 | 0.00 | 0.07 | 0.00 | 90 | 1008.7 |
| 20260509063009 | 56 | 157 | 2.0 | 7.0 | 0.00 | 0.07 | 0.00 | 90 | 1008.9 |
| 20260509061509 | 56 | 172 | 3.0 | 6.0 | 0.00 | 0.07 | 0.00 | 90 | 1009.0 |
| 20260509060006 | 57 | 139 | 2.0 | 7.0 | 0.00 | 0.07 | 0.00 | 91 | 1009.0 |
| 20260509054505 | 56 | 185 | 2.0 | 8.0 | 0.00 | 0.07 | 0.00 | 93 | 1009.0 |
| 20260509053002 | 55 | 178 | 3.0 | 5.0 | 0.00 | 0.07 | 0.00 | 92 | 1009.1 |
| 20260509051605 | 55 | 153 | 0.0 | 1.0 | 0.00 | 0.07 | 0.00 | 92 | 1009.1 |
| 20260509050057 | 55 | 152 | 0.0 | 2.0 | 0.00 | 0.07 | 0.00 | 92 | 1009.1 |
| 20260509044555 | 55 | 153 | 0.0 | 1.0 | 0.00 | 0.07 | 0.07 | 92 | 1009.1 |
| 20260509043101 | 55 | 172 | 0.0 | 0.0 | 0.00 | 0.07 | 0.07 | 92 | 1009.0 |
| 20260509041554 | 55 | 220 | 0.0 | 0.0 | 0.00 | 0.07 | 0.07 | 91 | 1009.1 |
| 20260509040053 | 56 | 220 | 0.0 | 0.0 | 0.00 | 0.07 | 0.07 | 91 | 1009.2 |
| 20260509034554 | 55 | 222 | 0.0 | 0.0 | 0.00 | 0.07 | 0.07 | 91 | 1009.2 |
| 20260509033052 | 56 | 222 | 0.0 | 0.0 | 0.00 | 0.07 | 0.07 | 90 | 1009.2 |
| 20260509031615 | 56 | 222 | 0.0 | 0.0 | 0.00 | 0.07 | 0.07 | 90 | 1009.2 |
| 20260509030051 | 57 | 222 | 0.0 | 0.0 | 0.00 | 0.07 | 0.07 | 90 | 1009.1 |
| 20260509024550 | 57 | 222 | 0.0 | 1.0 | 0.00 | 0.07 | 0.07 | 89 | 1008.8 |
| 20260509023054 | 57 | 262 | 0.0 | 2.0 | 0.00 | 0.07 | 0.07 | 88 | 1008.7 |
| 20260509021550 | 58 | 262 | 0.0 | 1.0 | 0.00 | 0.07 | 0.07 | 87 | 1008.5 |
| 20260509020049 | 59 | 262 | 1.0 | 2.0 | 0.00 | 0.07 | 0.07 | 85 | 1008.4 |
| 20260509014549 | 60 | 262 | 0.0 | 1.0 | 0.00 | 0.07 | 0.07 | 84 | 1008.3 |
| 20260509013049 | 62 | 262 | 0.0 | 0.0 | 0.00 | 0.07 | 0.07 | 81 | 1008.1 |
| 20260509011549 | 62 | 262 | 0.0 | 0.0 | 0.00 | 0.07 | 0.07 | 79 | 1008.0 |
| 20260509010047 | 63 | 262 | 0.0 | 2.0 | 0.00 | 0.07 | 0.07 | 78 | 1008.1 |
| 20260509004551 | 64 | 278 | 0.0 | 4.0 | 0.00 | 0.07 | 0.07 | 77 | 1008.0 |
| 20260509003047 | 64 | 272 | 2.0 | 6.0 | 0.00 | 0.07 | 0.07 | 75 | 1007.8 |
| 20260509001546 | 64 | 274 | 0.0 | 7.0 | 0.00 | 0.07 | 0.07 | 75 | 1007.6 |
| 20260509000101 | 65 | 273 | 1.0 | 5.0 | 0.00 | 0.07 | 0.07 | 75 | 1007.6 |
| 20260508234545 | 64 | 240 | 3.0 | 4.0 | 0.00 | 0.07 | 0.07 | 76 | 1007.3 |
| 20260508233043 | 64 | 248 | 1.0 | 5.0 | 0.00 | 0.07 | 0.07 | 77 | 1007.6 |
| 20260508231548 | 64 | 247 | 4.0 | 8.0 | 0.00 | 0.07 | 0.07 | 78 | 1008.0 |
| 20260508230040 | 63 | 286 | 1.0 | 5.0 | 0.00 | 0.07 | 0.07 | 82 | 1007.9 |
| 20260508224537 | 62 | 258 | 1.0 | 3.0 | 0.00 | 0.07 | 0.07 | 84 | 1007.7 |
| 20260508223038 | 61 | 155 | 0.0 | 5.0 | 0.00 | 0.07 | 0.07 | 86 | 1007.7 |
| 20260508221538 | 60 | 67 | 0.0 | 5.0 | 0.00 | 0.07 | 0.07 | 88 | 1007.7 |
| 20260508220038 | 59 | 136 | 1.0 | 7.0 | 0.01 | 0.07 | 0.07 | 89 | 1007.7 |
| 20260508214534 | 58 | 95 | 6.0 | 13.0 | 0.03 | 0.07 | 0.07 | 89 | 1007.2 |